createdAt,value
2019-04-11T00:00:35.451Z,25.67
2019-04-11T00:03:04.946Z,23.47
2019-04-11T00:05:33.400Z,22.70
2019-04-11T00:08:01.899Z,23.07
2019-04-11T00:10:31.306Z,19.63
2019-04-11T00:12:59.747Z,24.20
2019-04-11T00:15:28.784Z,22.30
2019-04-11T00:17:58.483Z,27.20
2019-04-11T00:20:27.038Z,27.30
2019-04-11T00:22:55.350Z,21.50
2019-04-11T00:25:23.687Z,24.83
2019-04-11T00:27:53.123Z,21.23
2019-04-11T00:30:21.636Z,19.17
2019-04-11T00:32:50.042Z,24.00
2019-04-11T00:35:19.619Z,22.30
2019-04-11T00:37:47.990Z,21.10
2019-04-11T00:40:17.484Z,19.73
2019-04-11T00:42:47.120Z,22.13
2019-04-11T00:45:15.898Z,21.30
2019-04-11T00:47:44.992Z,18.50
2019-04-11T00:50:13.528Z,24.40
2019-04-11T00:52:41.836Z,19.90
2019-04-11T00:55:11.176Z,21.97
2019-04-11T00:57:39.594Z,21.10
2019-04-11T01:00:09.049Z,20.20
2019-04-11T01:02:37.773Z,24.83
2019-04-11T01:05:07.549Z,21.20
2019-04-11T01:07:36.048Z,21.80
2019-04-11T01:10:06.737Z,19.43
2019-04-11T01:12:35.126Z,18.80
2019-04-11T01:15:05.005Z,17.03
2019-04-11T01:17:33.662Z,21.43
2019-04-11T01:20:02.933Z,17.70
2019-04-11T01:22:31.958Z,17.77
2019-04-11T01:25:00.555Z,18.07
2019-04-11T01:27:29.866Z,21.23
2019-04-11T01:29:58.303Z,20.07
2019-04-11T01:32:26.617Z,19.00
2019-04-11T01:34:55.106Z,16.53
2019-04-11T01:37:23.931Z,19.83
2019-04-11T01:39:59.460Z,18.60
2019-04-11T01:42:28.741Z,19.53
2019-04-11T01:44:57.137Z,21.30
2019-04-11T01:47:43.223Z,21.13
2019-04-11T01:50:13.251Z,19.43
2019-04-11T01:52:42.488Z,20.20
2019-04-11T01:55:10.930Z,18.33
2019-04-11T01:57:40.241Z,18.70
2019-04-11T02:00:12.221Z,20.00
2019-04-11T02:02:46.436Z,19.30
2019-04-11T02:05:16.749Z,21.60
2019-04-11T02:07:45.151Z,19.40
2019-04-11T02:10:14.715Z,23.00
2019-04-11T02:12:43.601Z,20.20
2019-04-11T02:15:12.352Z,19.07
2019-04-11T02:17:41.139Z,25.60
2019-04-11T02:20:09.829Z,20.00
2019-04-11T02:22:48.790Z,17.70
2019-04-11T02:25:35.260Z,18.40
2019-04-11T02:28:06.485Z,15.63
2019-04-11T02:30:38.708Z,19.60
2019-04-11T02:33:07.683Z,22.90
2019-04-11T02:35:37.398Z,16.97
2019-04-11T02:38:07.547Z,18.13
2019-04-11T02:40:36.809Z,19.37
2019-04-11T02:43:07.123Z,21.37
2019-04-11T02:45:45.307Z,17.77
2019-04-11T02:48:07.825Z,18.50
2019-04-11T02:50:37.156Z,20.20
2019-04-11T02:53:07.229Z,17.80
2019-04-11T02:55:37.821Z,16.73
2019-04-11T02:58:07.855Z,18.80
2019-04-11T03:00:37.634Z,17.93
2019-04-11T03:03:07.954Z,21.23
2019-04-11T03:05:37.486Z,18.93
2019-04-11T03:08:11.148Z,21.13
2019-04-11T03:10:37.770Z,19.13
2019-04-11T03:13:08.243Z,17.97
2019-04-11T03:15:48.882Z,17.13
2019-04-11T03:18:09.522Z,17.93
2019-04-11T03:20:47.332Z,21.20
2019-04-11T03:23:09.870Z,18.67
2019-04-11T03:25:38.515Z,19.70
2019-04-11T03:28:12.109Z,16.07
2019-04-11T03:30:54.186Z,20.80
2019-04-11T03:38:30.897Z,21.67
2019-04-11T03:40:57.031Z,21.13
2019-04-11T03:43:20.859Z,21.10
2019-04-11T03:46:01.822Z,23.50
2019-04-11T03:48:23.660Z,20.07
2019-04-11T03:50:39.479Z,22.83
2019-04-11T03:53:10.934Z,18.47
2019-04-11T03:55:39.147Z,20.13
2019-04-11T03:58:08.553Z,18.47
2019-04-11T04:00:41.219Z,20.00
2019-04-11T04:03:09.083Z,17.67
2019-04-11T04:05:39.101Z,17.17
2019-04-11T04:08:08.966Z,21.57
2019-04-11T04:10:41.552Z,21.33
2019-04-11T04:13:15.368Z,19.13
2019-04-11T04:16:02.764Z,18.30
2019-04-11T04:18:34.106Z,20.10
2019-04-11T04:21:10.784Z,19.20
2019-04-11T04:23:41.047Z,17.10
2019-04-11T04:26:11.579Z,20.93
2019-04-11T04:28:40.804Z,17.47
2019-04-11T04:31:11.394Z,17.50
2019-04-11T04:33:40.295Z,18.37
2019-04-11T04:36:10.773Z,21.83
2019-04-11T04:38:41.194Z,16.17
2019-04-11T04:41:19.720Z,19.93
2019-04-11T04:43:41.141Z,19.37
2019-04-11T04:46:25.937Z,20.83
2019-04-11T04:48:41.032Z,18.77
2019-04-11T04:51:12.032Z,20.13
2019-04-11T04:53:41.072Z,21.20
2019-04-11T04:56:10.994Z,22.40
2019-04-11T04:58:39.978Z,18.80
2019-04-11T05:01:09.934Z,19.67
2019-04-11T05:03:40.275Z,16.97
2019-04-11T05:06:10.131Z,19.33
2019-04-11T05:08:39.024Z,19.67
2019-04-11T05:11:07.765Z,19.80
2019-04-11T05:13:36.714Z,20.70
2019-04-11T05:16:16.391Z,18.73
2019-04-11T05:18:36.472Z,30.90
2019-04-11T05:21:05.346Z,19.57
2019-04-11T05:23:33.907Z,19.23
2019-04-11T05:26:03.456Z,23.03
2019-04-11T05:28:31.956Z,18.53
2019-04-11T05:31:00.467Z,23.73
2019-04-11T05:33:29.399Z,22.13
2019-04-11T05:35:58.539Z,23.70
2019-04-11T05:38:27.332Z,20.63
2019-04-11T05:40:56.657Z,21.27
2019-04-11T05:43:29.292Z,22.33
2019-04-11T05:45:56.635Z,23.07
2019-04-11T05:48:27.108Z,22.50
2019-04-11T05:50:56.205Z,21.40
2019-04-11T05:53:24.993Z,21.33
2019-04-11T05:55:53.547Z,30.10
2019-04-11T05:58:21.987Z,21.50
2019-04-11T06:01:01.440Z,24.37
2019-04-11T06:03:30.262Z,19.97
2019-04-11T06:06:12.822Z,21.40
2019-04-11T06:08:42.031Z,18.73
2019-04-11T06:11:16.953Z,17.60
2019-04-11T06:13:44.740Z,20.40
2019-04-11T06:16:14.589Z,20.47
2019-04-11T06:18:48.134Z,25.60
2019-04-11T06:21:35.886Z,22.63
2019-04-11T06:24:12.156Z,21.43
2019-04-11T06:26:45.573Z,20.77
2019-04-11T06:29:24.351Z,23.33
2019-04-11T06:32:05.651Z,23.40
2019-04-11T06:34:51.270Z,21.97
2019-04-11T06:37:29.903Z,24.37
2019-04-11T06:40:02.608Z,22.93
2019-04-11T06:42:39.269Z,19.60
2019-04-11T06:45:21.871Z,18.33
2019-04-11T06:47:59.007Z,21.07
2019-04-11T06:50:33.350Z,20.70
2019-04-11T06:53:02.321Z,22.17
2019-04-11T06:55:48.475Z,18.93
2019-04-11T06:58:21.521Z,20.07
2019-04-11T07:00:53.531Z,19.43
2019-04-11T07:03:30.841Z,21.47
2019-04-11T07:06:01.316Z,19.13
2019-04-11T07:08:32.117Z,21.27
2019-04-11T07:11:08.057Z,22.10
2019-04-11T07:13:49.934Z,26.77
2019-04-11T07:16:18.612Z,25.80
2019-04-11T07:19:05.858Z,21.30
2019-04-11T07:21:35.329Z,18.90
2019-04-11T07:24:24.679Z,21.80
2019-04-11T07:26:54.797Z,24.40
2019-04-11T07:29:31.540Z,30.83
2019-04-11T07:32:04.983Z,21.20
2019-04-11T07:34:36.256Z,24.97
2019-04-11T07:37:23.528Z,22.30
2019-04-11T07:39:53.921Z,25.27
2019-04-11T07:42:26.600Z,21.90
2019-04-11T07:44:57.617Z,23.27
2019-04-11T07:47:33.477Z,18.20
2019-04-11T07:50:04.171Z,20.40
2019-04-11T07:52:34.507Z,21.70
2019-04-11T07:55:03.057Z,20.13
2019-04-11T07:57:36.191Z,26.43
2019-04-11T08:00:13.043Z,21.83
2019-04-11T08:03:01.942Z,17.50
2019-04-11T08:05:44.642Z,22.03
2019-04-11T08:08:17.630Z,18.10
2019-04-11T08:10:56.691Z,22.90
2019-04-11T08:13:43.288Z,23.40
2019-04-11T08:16:30.787Z,22.30
2019-04-11T08:19:17.643Z,19.53
2019-04-11T08:22:04.190Z,18.97
2019-04-11T08:24:36.692Z,21.50
2019-04-11T08:27:23.237Z,18.37
2019-04-11T08:29:53.067Z,20.53
2019-04-11T08:32:38.155Z,19.93
2019-04-11T08:35:24.349Z,16.80
2019-04-11T08:38:00.956Z,17.50
2019-04-11T08:40:51.283Z,18.57
2019-04-11T08:43:27.408Z,17.83
2019-04-11T08:46:00.597Z,21.87
2019-04-11T08:48:30.830Z,19.20
2019-04-11T08:51:00.989Z,26.87
2019-04-11T08:53:33.730Z,17.00
2019-04-11T08:56:04.036Z,19.80
2019-04-11T08:58:44.861Z,20.33
2019-04-11T09:01:18.098Z,19.67
2019-04-11T09:03:59.779Z,24.93
2019-04-11T09:06:20.827Z,19.77
2019-04-11T09:08:56.880Z,20.77
2019-04-11T09:11:30.840Z,28.17
2019-04-11T09:14:16.855Z,23.00
2019-04-11T09:16:47.917Z,20.17
2019-04-11T09:19:30.669Z,25.20
2019-04-11T09:22:13.099Z,22.17
2019-04-11T09:24:43.321Z,24.77
2019-04-11T09:27:30.980Z,20.37
2019-04-11T09:30:19.093Z,22.40
2019-04-11T09:33:05.229Z,24.13
2019-04-11T09:35:37.873Z,22.37
2019-04-11T09:38:10.460Z,22.43
2019-04-11T09:40:47.899Z,19.53
2019-04-11T09:43:18.076Z,20.43
2019-04-11T09:46:00.361Z,26.00
2019-04-11T09:48:46.713Z,21.10
2019-04-11T09:51:19.411Z,22.27
2019-04-11T09:53:50.694Z,23.13
2019-04-11T09:56:20.850Z,20.93
2019-04-11T09:58:51.878Z,22.77
2019-04-11T10:01:30.945Z,22.77
2019-04-11T10:03:59.522Z,23.27
2019-04-11T10:06:46.523Z,24.33
2019-04-11T10:09:15.608Z,23.50
2019-04-11T10:11:52.571Z,21.93
2019-04-11T10:14:21.736Z,22.70
2019-04-11T10:17:08.688Z,25.40
2019-04-11T10:19:38.269Z,25.97
2019-04-11T10:22:15.107Z,25.27
2019-04-11T10:25:01.020Z,26.70
2019-04-11T10:27:47.574Z,23.47
2019-04-11T10:30:33.963Z,24.93
2019-04-11T10:33:16.981Z,24.67
2019-04-11T10:35:58.963Z,23.30
2019-04-11T10:38:28.669Z,27.27
2019-04-11T10:40:58.931Z,22.97
2019-04-11T10:43:27.213Z,24.13
2019-04-11T10:46:00.793Z,25.67
2019-04-11T10:48:38.792Z,26.33
2019-04-11T10:51:03.070Z,28.50
2019-04-11T10:53:31.445Z,24.93
2019-04-11T10:56:18.072Z,26.57
2019-04-11T10:58:49.021Z,24.53
2019-04-11T11:01:25.607Z,23.37
2019-04-11T11:04:09.481Z,23.20
2019-04-11T11:06:37.970Z,24.97
2019-04-11T11:09:20.268Z,26.53
2019-04-11T11:12:06.713Z,29.33
2019-04-11T11:14:49.042Z,27.30
2019-04-11T11:17:43.501Z,27.97
2019-04-11T11:20:03.612Z,24.70
2019-04-11T11:22:23.812Z,31.53
2019-04-11T11:25:13.577Z,30.90
2019-04-11T11:27:41.839Z,30.33
2019-04-11T11:30:21.168Z,26.80
2019-04-11T11:32:49.726Z,29.00
2019-04-11T11:35:24.081Z,32.47
2019-04-11T11:37:50.236Z,26.17
2019-04-11T11:40:41.272Z,30.30
2019-04-11T11:43:12.909Z,27.80
2019-04-11T11:45:59.340Z,25.90
2019-04-11T11:48:33.410Z,33.23
2019-04-11T11:51:06.800Z,26.93
2019-04-11T11:53:42.843Z,29.93
2019-04-11T11:56:12.336Z,28.30
2019-04-11T11:58:48.769Z,28.30
2019-04-11T12:01:26.057Z,27.63
2019-04-11T12:04:00.146Z,32.27
2019-04-11T12:06:27.131Z,33.50
2019-04-11T12:09:09.918Z,28.53
2019-04-11T12:11:40.037Z,32.43
2019-04-11T12:14:25.610Z,26.60
2019-04-11T12:17:04.820Z,30.83
2019-04-11T12:19:49.324Z,29.93
2019-04-11T12:22:12.425Z,31.43
2019-04-11T12:24:58.455Z,31.80
2019-04-11T12:27:32.889Z,32.07
2019-04-11T12:30:23.882Z,33.50
2019-04-11T12:32:55.786Z,29.63
2019-04-11T12:35:38.130Z,30.93
2019-04-11T12:38:13.830Z,29.87
2019-04-11T12:40:46.934Z,28.83
2019-04-11T12:43:16.979Z,31.93
2019-04-11T12:45:49.432Z,36.17
2019-04-11T12:48:18.195Z,33.00
2019-04-11T12:50:54.363Z,33.70
2019-04-11T12:53:22.815Z,30.33
2019-04-11T12:56:08.963Z,31.43
2019-04-11T12:58:41.811Z,33.03
2019-04-11T13:01:26.945Z,35.73
2019-04-11T13:04:08.525Z,30.43
2019-04-11T13:06:38.510Z,32.93
2019-04-11T13:09:19.686Z,32.57
2019-04-11T13:11:49.730Z,30.67
2019-04-11T13:14:28.488Z,30.80
2019-04-11T13:17:15.342Z,31.27
2019-04-11T13:19:45.302Z,30.23
2019-04-11T13:22:18.041Z,30.03
2019-04-11T13:24:48.051Z,29.27
2019-04-11T13:27:18.417Z,33.23
2019-04-11T13:30:04.723Z,30.00
2019-04-11T13:32:37.819Z,36.47
2019-04-11T13:35:25.298Z,36.20
2019-04-11T13:38:07.078Z,29.20
2019-04-11T13:40:46.147Z,31.80
2019-04-11T13:43:31.572Z,31.43
2019-04-11T13:46:07.278Z,31.03
2019-04-11T13:48:53.608Z,33.70
2019-04-11T13:51:32.775Z,34.47
2019-04-11T13:54:19.486Z,29.10
2019-04-11T13:56:58.722Z,31.73
2019-04-11T13:59:34.587Z,29.70
2019-04-11T14:02:17.660Z,36.63
2019-04-11T14:04:54.577Z,31.37
2019-04-11T14:07:27.736Z,32.00
2019-04-11T14:10:01.686Z,30.03
2019-04-11T14:12:30.084Z,30.13
2019-04-11T14:15:00.219Z,29.90
2019-04-11T14:17:48.477Z,29.73
2019-04-11T14:20:30.140Z,29.70
2019-04-11T14:23:05.446Z,32.47
2019-04-11T14:25:35.908Z,29.43
2019-04-11T14:28:08.161Z,30.70
2019-04-11T14:30:41.050Z,30.33
2019-04-11T14:33:09.426Z,27.00
2019-04-11T14:35:42.570Z,30.60
2019-04-11T14:38:15.359Z,31.87
2019-04-11T14:41:02.205Z,34.60
2019-04-11T14:43:32.258Z,29.50
2019-04-11T14:46:18.445Z,30.77
2019-04-11T14:48:51.710Z,31.03
2019-04-11T14:51:31.593Z,31.20
2019-04-11T14:54:18.191Z,30.90
2019-04-11T14:57:03.830Z,28.90
2019-04-11T14:59:36.894Z,31.43
2019-04-11T15:02:19.065Z,33.80
2019-04-11T15:05:07.316Z,27.47
2019-04-11T15:07:39.823Z,30.23
2019-04-11T15:10:21.839Z,29.67
2019-04-11T15:12:51.139Z,30.80
2019-04-11T15:15:30.128Z,27.13
2019-04-11T15:18:02.961Z,30.17
2019-04-11T15:20:34.225Z,28.60
2019-04-11T15:23:06.972Z,26.13
2019-04-11T15:25:37.899Z,30.50
2019-04-11T15:28:12.367Z,30.70
2019-04-11T15:30:39.962Z,31.13
2019-04-11T15:33:15.600Z,29.80
2019-04-11T15:35:45.688Z,29.03
2019-04-11T15:38:17.398Z,28.27
2019-04-11T15:40:46.586Z,31.40
2019-04-11T15:43:28.657Z,29.43
2019-04-11T15:46:01.182Z,29.57
2019-04-11T15:48:42.025Z,29.53
2019-04-11T15:51:26.883Z,27.33
2019-04-11T15:54:15.084Z,33.60
2019-04-11T15:56:54.541Z,26.17
2019-04-11T15:59:24.642Z,31.00
2019-04-11T16:02:10.825Z,27.03
2019-04-11T16:04:46.795Z,30.37
2019-04-11T16:07:25.876Z,31.40
2019-04-11T16:09:58.551Z,29.20
2019-04-11T16:12:37.263Z,26.67
2019-04-11T16:15:08.779Z,24.90
2019-04-11T16:17:57.783Z,25.00
2019-04-11T16:20:25.428Z,28.40
2019-04-11T16:22:57.820Z,27.57
2019-04-11T16:25:29.031Z,30.53
2019-04-11T16:28:08.119Z,32.33
2019-04-11T16:30:39.710Z,31.73
2019-04-11T16:33:13.496Z,29.10
2019-04-11T16:35:48.930Z,25.40
2019-04-11T16:38:23.554Z,32.00
2019-04-11T16:41:02.354Z,26.90
2019-04-11T16:43:32.108Z,27.30
2019-04-11T16:46:08.040Z,27.60
2019-04-11T16:48:36.366Z,27.17
2019-04-11T16:51:06.036Z,28.17
2019-04-11T16:53:34.529Z,35.70
2019-04-11T16:56:03.025Z,31.47
2019-04-11T16:58:33.702Z,30.77
2019-04-11T17:01:02.049Z,27.43
2019-04-11T17:03:31.605Z,29.60
2019-04-11T17:06:01.571Z,31.40
2019-04-11T17:08:34.488Z,30.50
2019-04-11T17:11:04.739Z,32.17
2019-04-11T17:13:33.164Z,27.90
2019-04-11T17:16:02.727Z,29.90
2019-04-11T17:18:34.121Z,28.10
2019-04-11T17:21:01.429Z,29.73
2019-04-11T17:23:30.385Z,32.60
2019-04-11T17:25:58.857Z,26.67
2019-04-11T17:28:27.422Z,26.13
2019-04-11T17:30:55.999Z,27.00
2019-04-11T17:33:28.602Z,27.73
2019-04-11T17:35:56.184Z,28.87
2019-04-11T17:38:26.239Z,26.60
2019-04-11T17:40:54.750Z,28.70
2019-04-11T17:43:23.233Z,30.07
2019-04-11T17:45:51.524Z,27.97
2019-04-11T17:48:19.942Z,32.77
2019-04-11T17:50:48.395Z,26.73
2019-04-11T17:53:16.990Z,25.50
2019-04-11T17:55:45.386Z,26.93
2019-04-11T17:58:13.886Z,26.90
2019-04-11T18:00:55.574Z,29.57
2019-04-11T18:03:24.020Z,26.47
2019-04-11T18:05:52.507Z,28.80
2019-04-11T18:08:20.974Z,29.60
2019-04-11T18:10:49.236Z,27.63
2019-04-11T18:13:17.834Z,31.60
2019-04-11T18:15:46.153Z,28.93
2019-04-11T18:18:14.546Z,25.50
2019-04-11T18:20:43.071Z,28.97
2019-04-11T18:23:11.648Z,28.27
2019-04-11T18:25:40.131Z,29.80
2019-04-11T18:28:08.652Z,29.23
2019-04-11T18:30:37.153Z,27.87
2019-04-11T18:33:05.732Z,30.10
2019-04-11T18:35:34.251Z,30.40
2019-04-11T18:38:05.950Z,25.57
2019-04-11T18:40:34.420Z,25.97
2019-04-11T18:43:03.672Z,27.93
2019-04-11T18:45:32.225Z,28.50
2019-04-11T18:48:01.606Z,27.63
2019-04-11T18:50:30.244Z,29.03
2019-04-11T18:52:59.637Z,30.77
2019-04-11T18:55:28.696Z,32.33
2019-04-11T18:57:57.142Z,39.70
2019-04-11T19:00:28.879Z,35.37
2019-04-11T19:02:58.622Z,29.13
2019-04-11T19:05:28.928Z,32.47
2019-04-11T19:08:02.385Z,28.33
2019-04-11T19:10:30.809Z,29.80
2019-04-11T19:12:59.661Z,33.87
2019-04-11T19:15:28.736Z,31.30
2019-04-11T19:18:06.071Z,28.67
2019-04-11T19:20:27.425Z,27.93
2019-04-11T19:22:56.029Z,24.10
2019-04-11T19:25:24.628Z,29.13
2019-04-11T19:27:54.325Z,24.73
2019-04-11T19:30:23.953Z,25.70
2019-04-11T19:32:53.392Z,24.40
2019-04-11T19:35:21.823Z,24.30
2019-04-11T19:37:50.178Z,29.80
2019-04-11T19:40:18.612Z,27.93
2019-04-11T19:42:49.255Z,23.93
2019-04-11T19:45:19.550Z,22.63
2019-04-11T19:47:51.496Z,24.57
2019-04-11T19:50:17.837Z,26.70
2019-04-11T19:52:46.225Z,24.73
2019-04-11T19:55:16.411Z,28.80
2019-04-11T19:57:44.848Z,26.60
2019-04-11T20:00:14.343Z,24.60
2019-04-11T20:02:42.706Z,24.93
2019-04-11T20:05:12.379Z,23.47
2019-04-11T20:07:40.814Z,23.20
2019-04-11T20:10:09.365Z,24.90
2019-04-11T20:12:37.701Z,22.47
2019-04-11T20:15:08.655Z,26.90
2019-04-11T20:17:44.174Z,24.33
2019-04-11T20:20:08.076Z,22.03
2019-04-11T20:22:39.280Z,20.20
2019-04-11T20:25:07.295Z,24.73
2019-04-11T20:27:35.668Z,25.43
2019-04-11T20:30:05.878Z,23.50
2019-04-11T20:32:34.238Z,24.30
2019-04-11T20:35:02.604Z,24.43
2019-04-11T20:37:39.268Z,20.70
2019-04-11T20:40:02.799Z,23.93
2019-04-11T20:42:31.230Z,21.90
2019-04-11T20:44:59.543Z,20.53
2019-04-11T20:47:29.608Z,27.17
2019-04-11T20:49:57.946Z,25.37
2019-04-11T20:52:26.270Z,22.57
2019-04-11T20:54:54.646Z,22.20
2019-04-11T20:57:25.986Z,20.67
2019-04-11T20:59:53.224Z,19.83
2019-04-11T21:02:21.543Z,23.00
2019-04-11T21:04:49.862Z,21.60
2019-04-11T21:07:18.294Z,23.23
2019-04-11T21:09:46.706Z,22.00
2019-04-11T21:12:16.636Z,22.17
2019-04-11T21:14:45.272Z,21.40
2019-04-11T21:17:13.608Z,22.33
2019-04-11T21:19:41.982Z,23.17
2019-04-11T21:22:10.455Z,24.60
2019-04-11T21:24:38.782Z,26.57
2019-04-11T21:27:07.266Z,26.37
2019-04-11T21:29:35.584Z,20.50
2019-04-11T21:32:04.015Z,23.60
2019-04-11T21:34:32.934Z,23.63
2019-04-11T21:37:02.558Z,22.77
2019-04-11T21:39:31.050Z,23.97
2019-04-11T21:41:59.455Z,23.83
2019-04-11T21:44:27.827Z,21.67
2019-04-11T21:46:56.411Z,20.93
2019-04-11T21:49:24.734Z,23.77
2019-04-11T21:51:53.040Z,22.73
2019-04-11T21:54:21.457Z,20.30
2019-04-11T21:56:50.392Z,20.90
2019-04-11T21:59:20.402Z,19.00
2019-04-11T22:01:49.046Z,21.27
2019-04-11T22:04:17.921Z,19.50
2019-04-11T22:06:46.248Z,21.83
2019-04-11T22:09:14.702Z,21.33
2019-04-11T22:11:43.086Z,21.43
2019-04-11T22:14:11.914Z,23.03
2019-04-11T22:16:44.058Z,21.93
2019-04-11T22:19:13.957Z,23.33
2019-04-11T22:21:45.004Z,20.33
2019-04-11T22:24:10.953Z,21.07
2019-04-11T22:26:39.349Z,21.70
2019-04-11T22:29:07.792Z,18.60
2019-04-11T22:31:36.074Z,21.50
2019-04-11T22:34:15.328Z,23.13
2019-04-11T22:36:43.672Z,19.20
2019-04-11T22:39:12.061Z,19.53
2019-04-11T22:41:40.516Z,24.50
2019-04-11T22:44:09.154Z,19.83
2019-04-11T22:46:38.294Z,18.47
2019-04-11T22:49:08.758Z,18.67
2019-04-11T22:51:36.780Z,23.63
2019-04-11T22:54:05.164Z,21.80
2019-04-11T22:56:33.549Z,21.80
2019-04-11T22:59:01.882Z,19.30
2019-04-11T23:01:30.324Z,19.83
2019-04-11T23:04:00.398Z,19.83
2019-04-11T23:06:28.825Z,21.27
2019-04-11T23:08:57.431Z,22.30
2019-04-11T23:11:25.745Z,21.43
2019-04-11T23:13:54.231Z,21.30
2019-04-11T23:16:22.797Z,19.43
2019-04-11T23:18:51.151Z,18.90
2019-04-11T23:21:19.657Z,20.67
2019-04-11T23:23:48.067Z,20.10
2019-04-11T23:26:17.422Z,20.43
2019-04-11T23:28:46.715Z,20.37
2019-04-11T23:31:19.748Z,21.63
2019-04-11T23:33:46.223Z,22.90
2019-04-11T23:36:14.599Z,20.60
2019-04-11T23:38:42.889Z,17.93
2019-04-11T23:41:12.436Z,18.67
2019-04-11T23:43:40.918Z,18.60
2019-04-11T23:46:09.233Z,22.20
2019-04-11T23:48:37.597Z,24.00
2019-04-11T23:51:06.007Z,19.40
2019-04-11T23:53:34.285Z,21.63
2019-04-11T23:56:02.866Z,24.63
2019-04-11T23:58:32.047Z,21.40
